createdAt,value
2017-07-12T00:00:02.474Z,19.5
2017-07-12T00:00:12.140Z,19.5
2017-07-12T00:00:22.468Z,19.5
2017-07-12T00:00:32.463Z,19.5
2017-07-12T00:00:42.460Z,19.5
2017-07-12T00:00:52.789Z,19.5
2017-07-12T00:01:02.449Z,19.5
2017-07-12T00:01:12.103Z,19.5
2017-07-12T00:01:21.769Z,19.5
2017-07-12T00:01:32.434Z,19.5
2017-07-12T00:01:42.425Z,19.5
2017-07-12T00:01:52.087Z,19.5
2017-07-12T00:02:02.088Z,19.5
2017-07-12T00:02:12.411Z,19.5
2017-07-12T00:02:22.410Z,19.5
2017-07-12T00:02:32.744Z,19.5
2017-07-12T00:02:42.403Z,19.5
2017-07-12T00:02:52.391Z,19.5
2017-07-12T00:03:02.055Z,19.5
2017-07-12T00:03:12.390Z,19.5
2017-07-12T00:03:22.375Z,19.5
2017-07-12T00:03:32.379Z,19.5
2017-07-12T00:03:42.370Z,19.5
2017-07-12T00:03:52.365Z,19.5
2017-07-12T00:04:02.028Z,19.5
2017-07-12T00:04:12.360Z,19.5
2017-07-12T00:04:22.349Z,19.5
2017-07-12T00:04:31.675Z,19.4
2017-07-12T00:04:42.005Z,19.5
2017-07-12T00:04:52.333Z,19.5
2017-07-12T00:05:01.997Z,19.5
2017-07-12T00:05:12.321Z,19.5
2017-07-12T00:05:22.324Z,19.5
2017-07-12T00:05:31.981Z,19.5
2017-07-12T00:05:42.312Z,19.5
2017-07-12T00:05:52.307Z,19.5
2017-07-12T00:06:01.630Z,19.5
2017-07-12T00:06:11.628Z,19.5
2017-07-12T00:06:21.622Z,19.5
2017-07-12T00:06:31.618Z,19.5
2017-07-12T00:06:42.624Z,19.5
2017-07-12T00:06:51.944Z,19.5
2017-07-12T00:07:02.271Z,19.5
2017-07-12T00:07:12.272Z,19.5
2017-07-12T00:07:22.269Z,19.5
2017-07-12T00:07:32.045Z,19.5
2017-07-12T00:07:42.250Z,19.5
2017-07-12T00:07:52.252Z,19.5
2017-07-12T00:08:01.910Z,19.5
2017-07-12T00:08:11.902Z,19.4
2017-07-12T00:08:22.236Z,19.4
2017-07-12T00:08:31.895Z,19.4
2017-07-12T00:08:42.225Z,19.4
2017-07-12T00:08:52.217Z,19.4
2017-07-12T00:09:02.216Z,19.4
2017-07-12T00:09:12.212Z,19.4
2017-07-12T00:09:22.553Z,19.4
2017-07-12T00:09:32.201Z,19.4
2017-07-12T00:09:42.245Z,19.4
2017-07-12T00:09:51.853Z,19.4
2017-07-12T00:10:02.520Z,19.4
2017-07-12T00:10:12.180Z,19.4
2017-07-12T00:10:22.175Z,19.4
2017-07-12T00:10:32.171Z,19.4
2017-07-12T00:10:42.165Z,19.3
2017-07-12T00:10:52.159Z,19.4
2017-07-12T00:11:01.818Z,19.4
2017-07-12T00:11:12.488Z,19.3
2017-07-12T00:11:22.147Z,19.4
2017-07-12T00:11:31.804Z,19.4
2017-07-12T00:11:42.466Z,19.4
2017-07-12T00:11:52.462Z,19.4
2017-07-12T00:12:01.453Z,19.4
2017-07-12T00:12:12.160Z,19.4
2017-07-12T00:12:22.123Z,19.4
2017-07-12T00:12:31.772Z,19.3
2017-07-12T00:12:42.441Z,19.3
2017-07-12T00:12:51.432Z,19.3
2017-07-12T00:13:02.096Z,19.3
2017-07-12T00:13:12.097Z,19.3
2017-07-12T00:13:22.084Z,19.3
2017-07-12T00:13:31.414Z,19.3
2017-07-12T00:13:42.413Z,19.3
2017-07-12T00:13:52.403Z,19.3
2017-07-12T00:14:02.065Z,19.3
2017-07-12T00:14:11.731Z,19.3
2017-07-12T00:14:22.428Z,19.3
2017-07-12T00:14:32.053Z,19.3
2017-07-12T00:14:42.385Z,19.3
2017-07-12T00:14:51.378Z,19.3
2017-07-12T00:15:02.040Z,19.3
2017-07-12T00:15:12.039Z,19.3
2017-07-12T00:15:22.026Z,19.3
2017-07-12T00:15:32.026Z,19.3
2017-07-12T00:15:42.354Z,19.3
2017-07-12T00:15:51.347Z,19.3
2017-07-12T00:16:01.678Z,19.3
2017-07-12T00:16:11.668Z,19.3
2017-07-12T00:16:22.000Z,19.3
2017-07-12T00:16:31.661Z,19.3
2017-07-12T00:16:41.656Z,19.3
2017-07-12T00:16:51.648Z,19.3
2017-07-12T00:17:02.012Z,19.3
2017-07-12T00:17:11.637Z,19.3
2017-07-12T00:17:21.303Z,19.3
2017-07-12T00:17:31.965Z,19.3
2017-07-12T00:17:41.956Z,19.3
2017-07-12T00:17:51.618Z,19.3
2017-07-12T00:18:01.948Z,19.3
2017-07-12T00:18:11.945Z,19.3
2017-07-12T00:18:21.940Z,19.3
2017-07-12T00:18:31.260Z,19.3
2017-07-12T00:18:42.264Z,19.2
2017-07-12T00:18:51.932Z,19.2
2017-07-12T00:19:01.923Z,19.2
2017-07-12T00:19:11.939Z,19.2
2017-07-12T00:19:22.248Z,19.3
2017-07-12T00:19:32.249Z,19.3
2017-07-12T00:19:41.564Z,19.3
2017-07-12T00:19:52.234Z,19.3
2017-07-12T00:20:02.223Z,19.3
2017-07-12T00:20:11.553Z,19.3
2017-07-12T00:20:22.217Z,19.2
2017-07-12T00:20:31.544Z,19.2
2017-07-12T00:20:41.534Z,19.2
2017-07-12T00:20:51.538Z,19.2
2017-07-12T00:21:01.533Z,19.2
2017-07-12T00:21:11.854Z,19.2
2017-07-12T00:21:21.853Z,19.2
2017-07-12T00:21:31.512Z,19.2
2017-07-12T00:21:41.170Z,19.2
2017-07-12T00:21:51.167Z,19.2
2017-07-12T00:22:01.499Z,19.2
2017-07-12T00:22:11.159Z,19.2
2017-07-12T00:22:21.489Z,19.2
2017-07-12T00:22:31.487Z,19.1
2017-07-12T00:22:41.479Z,19.1
2017-07-12T00:22:51.468Z,19.1
2017-07-12T00:23:01.473Z,19.1
2017-07-12T00:23:11.461Z,19.1
2017-07-12T00:23:21.793Z,19.1
2017-07-12T00:23:31.454Z,19.1
2017-07-12T00:23:42.135Z,19.1
2017-07-12T00:23:51.438Z,19.1
2017-07-12T00:24:01.776Z,19.1
2017-07-12T00:24:11.097Z,19.1
2017-07-12T00:24:21.093Z,19.1
2017-07-12T00:24:31.763Z,19.1
2017-07-12T00:24:41.416Z,19.1
2017-07-12T00:24:51.747Z,19.1
2017-07-12T00:25:01.072Z,19.1
2017-07-12T00:25:11.069Z,19.1
2017-07-12T00:25:21.062Z,19.1
2017-07-12T00:25:31.395Z,19.1
2017-07-12T00:25:41.720Z,19.2
2017-07-12T00:25:52.056Z,19.2
2017-07-12T00:26:01.046Z,19.2
2017-07-12T00:26:11.378Z,19.2
2017-07-12T00:26:21.372Z,19.2
2017-07-12T00:26:32.408Z,19.2
2017-07-12T00:26:41.361Z,19.2
2017-07-12T00:26:51.685Z,19.2
2017-07-12T00:27:01.352Z,19.2
2017-07-12T00:27:12.016Z,19.2
2017-07-12T00:27:21.678Z,19.2
2017-07-12T00:27:31.668Z,19.2
2017-07-12T00:27:41.666Z,19.2
2017-07-12T00:27:51.661Z,19.2
2017-07-12T00:28:01.658Z,19.2
2017-07-12T00:28:11.981Z,19.2
2017-07-12T00:28:20.979Z,19.2
2017-07-12T00:28:31.301Z,19.2
2017-07-12T00:28:41.631Z,19.2
2017-07-12T00:28:51.634Z,19.2
2017-07-12T00:29:01.628Z,19.2
2017-07-12T00:29:11.291Z,19.2
2017-07-12T00:29:21.980Z,19.2
2017-07-12T00:29:31.615Z,19.2
2017-07-12T00:29:42.298Z,19.2
2017-07-12T00:29:50.930Z,19.2
2017-07-12T00:30:00.925Z,19.2
2017-07-12T00:30:10.927Z,19.2
2017-07-12T00:30:21.591Z,19.2
2017-07-12T00:30:30.915Z,19.2
2017-07-12T00:30:40.909Z,19.2
2017-07-12T00:30:51.239Z,19.2
2017-07-12T00:31:00.897Z,19.2
2017-07-12T00:31:11.229Z,19.2
2017-07-12T00:31:21.563Z,19.2
2017-07-12T00:31:31.558Z,19.2
2017-07-12T00:31:41.550Z,19.1
2017-07-12T00:31:51.206Z,19.1
2017-07-12T00:32:01.206Z,19.1
2017-07-12T00:32:11.201Z,19.1
2017-07-12T00:32:21.526Z,19.1
2017-07-12T00:32:31.522Z,19.1
2017-07-12T00:32:41.856Z,19.2
2017-07-12T00:32:50.843Z,19.2
2017-07-12T00:33:01.172Z,19.2
2017-07-12T00:33:11.504Z,19.2
2017-07-12T00:33:21.504Z,19.2
2017-07-12T00:33:30.822Z,19.2
2017-07-12T00:33:41.154Z,19.2
2017-07-12T00:33:51.150Z,19.2
2017-07-12T00:34:01.818Z,19.2
2017-07-12T00:34:11.478Z,19.2
2017-07-12T00:34:21.141Z,19.2
2017-07-12T00:34:30.793Z,19.1
2017-07-12T00:34:41.790Z,19.2
2017-07-12T00:34:51.459Z,19.1
2017-07-12T00:35:01.450Z,19.2
2017-07-12T00:35:10.778Z,19.1
2017-07-12T00:35:21.105Z,19.1
2017-07-12T00:35:31.437Z,19.1
2017-07-12T00:35:41.438Z,19.1
2017-07-12T00:35:52.139Z,19.2
2017-07-12T00:36:01.752Z,19.2
2017-07-12T00:36:10.746Z,19.1
2017-07-12T00:36:21.426Z,19.1
2017-07-12T00:36:31.405Z,19.2
2017-07-12T00:36:41.406Z,19.1
2017-07-12T00:36:51.397Z,19.1
2017-07-12T00:37:00.724Z,19.2
2017-07-12T00:37:11.052Z,19.2
2017-07-12T00:37:21.713Z,19.2
2017-07-12T00:37:31.043Z,19.1
2017-07-12T00:37:40.697Z,19.1
2017-07-12T00:37:51.409Z,19.1
2017-07-12T00:38:01.027Z,19.2
2017-07-12T00:38:11.690Z,19.2
2017-07-12T00:38:21.686Z,19.2
2017-07-12T00:38:31.488Z,19.2
2017-07-12T00:38:41.346Z,19.2
2017-07-12T00:38:50.671Z,19.2
2017-07-12T00:39:00.664Z,19.2
2017-07-12T00:39:11.328Z,19.2
2017-07-12T00:39:21.324Z,19.1
2017-07-12T00:39:31.652Z,19.2
2017-07-12T00:39:40.978Z,19.2
2017-07-12T00:39:51.304Z,19.2
2017-07-12T00:40:00.966Z,19.2
2017-07-12T00:40:11.302Z,19.2
2017-07-12T00:40:20.959Z,19.1
2017-07-12T00:40:31.286Z,19.2
2017-07-12T00:40:40.953Z,19.2
2017-07-12T00:40:51.279Z,19.1
2017-07-12T00:41:00.943Z,19.1
2017-07-12T00:41:10.603Z,19.1
2017-07-12T00:41:21.262Z,19.2
2017-07-12T00:41:30.926Z,19.2
2017-07-12T00:41:41.589Z,19.1
2017-07-12T00:41:51.254Z,19.1
2017-07-12T00:42:00.911Z,19.1
2017-07-12T00:42:11.237Z,19.1
2017-07-12T00:42:20.567Z,19.1
2017-07-12T00:42:30.917Z,19.2
2017-07-12T00:42:41.226Z,19.1
2017-07-12T00:42:51.577Z,19.1
2017-07-12T00:43:00.543Z,19.1
2017-07-12T00:43:10.871Z,19.1
2017-07-12T00:43:21.211Z,19.1
2017-07-12T00:43:30.865Z,19.1
2017-07-12T00:43:40.867Z,19.1
2017-07-12T00:43:50.848Z,19.1
2017-07-12T00:44:01.878Z,19.1
2017-07-12T00:44:11.182Z,19.1
2017-07-12T00:44:20.840Z,19.2
2017-07-12T00:44:31.167Z,19.1
2017-07-12T00:44:40.830Z,19.1
2017-07-12T00:44:50.830Z,19.1
2017-07-12T00:45:01.157Z,19.2
2017-07-12T00:45:11.154Z,19.2
2017-07-12T00:45:20.809Z,19.1
2017-07-12T00:45:30.803Z,19.1
2017-07-12T00:45:41.139Z,19.1
2017-07-12T00:45:51.138Z,19.1
2017-07-12T00:46:01.127Z,19.1
2017-07-12T00:46:11.120Z,19.2
2017-07-12T00:46:20.782Z,19.2
2017-07-12T00:46:31.441Z,19.1
2017-07-12T00:46:40.770Z,19.2
2017-07-12T00:46:50.773Z,19.2
2017-07-12T00:47:00.757Z,19.1
2017-07-12T00:47:10.761Z,19.1
2017-07-12T00:47:21.089Z,19.1
2017-07-12T00:47:31.431Z,19.1
2017-07-12T00:47:40.411Z,19.2
2017-07-12T00:47:50.738Z,19.2
2017-07-12T00:48:00.783Z,19.2
2017-07-12T00:48:11.062Z,19.2
2017-07-12T00:48:21.062Z,19.2
2017-07-12T00:48:30.719Z,19.2
2017-07-12T00:48:41.054Z,19.2
2017-07-12T00:48:50.709Z,19.2
2017-07-12T00:49:00.700Z,19.2
2017-07-12T00:49:11.032Z,19.2
2017-07-12T00:49:21.024Z,19.2
2017-07-12T00:49:31.024Z,19.2
2017-07-12T00:49:41.373Z,19.2
2017-07-12T00:49:50.683Z,19.2
2017-07-12T00:50:00.674Z,19.2
2017-07-12T00:50:10.999Z,19.2
2017-07-12T00:50:21.333Z,19.2
2017-07-12T00:50:30.664Z,19.1
2017-07-12T00:50:41.323Z,19.2
2017-07-12T00:50:50.309Z,19.2
2017-07-12T00:51:01.315Z,19.2
2017-07-12T00:51:10.975Z,19.2
2017-07-12T00:51:20.631Z,19.1
2017-07-12T00:51:31.297Z,19.1
2017-07-12T00:51:40.965Z,19.1
2017-07-12T00:51:50.281Z,19.1
2017-07-12T00:52:00.946Z,19.1
2017-07-12T00:52:11.282Z,19.1
2017-07-12T00:52:20.934Z,19.1
2017-07-12T00:52:30.264Z,19.1
2017-07-12T00:52:41.270Z,19.1
2017-07-12T00:52:51.259Z,19.1
2017-07-12T00:53:01.254Z,19.1
2017-07-12T00:53:10.577Z,19.1
2017-07-12T00:53:20.576Z,19.1
2017-07-12T00:53:30.905Z,19.1
2017-07-12T00:53:40.899Z,19.1
2017-07-12T00:53:50.559Z,19.1
2017-07-12T00:54:00.554Z,19.1
2017-07-12T00:54:10.551Z,19.1
2017-07-12T00:54:20.211Z,19.1
2017-07-12T00:54:31.212Z,19.1
2017-07-12T00:54:40.205Z,19.1
2017-07-12T00:54:50.194Z,19.1
2017-07-12T00:55:01.218Z,19.1
2017-07-12T00:55:10.919Z,19.1
2017-07-12T00:55:20.847Z,19.1
2017-07-12T00:55:30.846Z,19.1
2017-07-12T00:55:40.841Z,19.1
2017-07-12T00:55:50.836Z,19.1
2017-07-12T00:56:00.164Z,19.1
2017-07-12T00:56:10.627Z,19.1
2017-07-12T00:56:20.154Z,19.1
2017-07-12T00:56:30.481Z,19.1
2017-07-12T00:56:40.810Z,19.1
2017-07-12T00:56:50.472Z,19.1
2017-07-12T00:57:00.470Z,19.1
2017-07-12T00:57:10.462Z,19.1
2017-07-12T00:57:20.789Z,19.1
2017-07-12T00:57:30.784Z,19.1
2017-07-12T00:57:40.112Z,19.1
2017-07-12T00:57:51.125Z,19.1
2017-07-12T00:58:00.776Z,19.1
2017-07-12T00:58:10.764Z,19.2
2017-07-12T00:58:21.097Z,19.2
2017-07-12T00:58:30.427Z,19.1
2017-07-12T00:58:40.425Z,19.1
2017-07-12T00:58:50.080Z,19.2
2017-07-12T00:59:00.743Z,19.2
2017-07-12T00:59:10.736Z,19.2
2017-07-12T00:59:21.084Z,19.2
2017-07-12T00:59:30.058Z,19.2
2017-07-12T00:59:40.388Z,19.2
2017-07-12T00:59:50.383Z,19.2
2017-07-12T01:00:00.384Z,19.1
2017-07-12T01:00:11.065Z,19.2
2017-07-12T01:00:20.368Z,19.2
2017-07-12T01:00:30.365Z,19.2
2017-07-12T01:00:40.694Z,19.2
2017-07-12T01:00:50.703Z,19.2
2017-07-12T01:01:00.686Z,19.2
2017-07-12T01:01:11.012Z,19.2
2017-07-12T01:01:20.004Z,19.2
2017-07-12T01:01:30.337Z,19.2
2017-07-12T01:01:40.328Z,19.2
2017-07-12T01:01:50.664Z,19.2
2017-07-12T01:02:00.657Z,19.2
2017-07-12T01:02:10.652Z,19.2
2017-07-12T01:02:20.318Z,19.2
2017-07-12T01:02:30.638Z,19.2
2017-07-12T01:02:40.638Z,19.2
2017-07-12T01:02:50.296Z,19.2
2017-07-12T01:03:00.415Z,19.2
2017-07-12T01:03:10.954Z,19.2
2017-07-12T01:03:20.410Z,19.2
2017-07-12T01:03:30.616Z,19.2
2017-07-12T01:03:40.275Z,19.1
2017-07-12T01:03:50.600Z,19.2
2017-07-12T01:04:00.262Z,19.2
2017-07-12T01:04:10.595Z,19.2
2017-07-12T01:04:20.921Z,19.2
2017-07-12T01:04:30.579Z,19.2
2017-07-12T01:04:40.579Z,19.2
2017-07-12T01:04:50.233Z,19.2
2017-07-12T01:05:00.565Z,19.2
2017-07-12T01:05:10.896Z,19.1
2017-07-12T01:05:20.897Z,19.1
2017-07-12T01:05:30.213Z,19.1
2017-07-12T01:05:40.881Z,19.1
2017-07-12T01:05:50.332Z,19.1
2017-07-12T01:06:00.200Z,19.1
2017-07-12T01:06:10.195Z,19.2
2017-07-12T01:06:20.191Z,19.2
2017-07-12T01:06:30.187Z,19.2
2017-07-12T01:06:40.850Z,19.2
2017-07-12T01:06:50.848Z,19.2
2017-07-12T01:07:00.507Z,19.2
2017-07-12T01:07:10.501Z,19.2
2017-07-12T01:07:20.496Z,19.2
2017-07-12T01:07:30.495Z,19.2
2017-07-12T01:07:40.509Z,19.1
2017-07-12T01:07:50.484Z,19.1
2017-07-12T01:08:00.479Z,19.1
2017-07-12T01:08:10.806Z,19.1
2017-07-12T01:08:20.801Z,19.1
2017-07-12T01:08:30.793Z,19.1
2017-07-12T01:08:40.459Z,19.1
2017-07-12T01:08:50.454Z,19.1
2017-07-12T01:08:59.781Z,19.1
2017-07-12T01:09:10.446Z,19.1
2017-07-12T01:09:20.441Z,19.2
2017-07-12T01:09:30.435Z,19.2
2017-07-12T01:09:40.431Z,19.2
2017-07-12T01:09:50.758Z,19.2
2017-07-12T01:10:00.425Z,19.2
2017-07-12T01:10:10.076Z,19.1
2017-07-12T01:10:20.742Z,19.1
2017-07-12T01:10:31.095Z,19.1
2017-07-12T01:10:40.405Z,19.1
2017-07-12T01:10:50.398Z,19.1
2017-07-12T01:11:00.057Z,19.1
2017-07-12T01:11:10.508Z,19.1
2017-07-12T01:11:20.382Z,19.1
2017-07-12T01:11:30.401Z,19.1
2017-07-12T01:11:40.031Z,19.1
2017-07-12T01:11:50.034Z,19.2
2017-07-12T01:12:00.359Z,19.1
2017-07-12T01:12:10.691Z,19.1
2017-07-12T01:12:20.687Z,19.1
2017-07-12T01:12:30.006Z,19.2
2017-07-12T01:12:40.686Z,19.2
2017-07-12T01:12:50.665Z,19.2
2017-07-12T01:13:00.458Z,19.2
2017-07-12T01:13:10.330Z,19.3
2017-07-12T01:13:20.330Z,19.3
2017-07-12T01:13:29.978Z,19.2
2017-07-12T01:13:40.307Z,19.2
2017-07-12T01:13:50.307Z,19.2
2017-07-12T01:14:00.302Z,19.2
2017-07-12T01:14:10.295Z,19.2
2017-07-12T01:14:19.958Z,19.2
2017-07-12T01:14:30.284Z,19.2
2017-07-12T01:14:40.617Z,19.2
2017-07-12T01:14:50.277Z,19.2
2017-07-12T01:15:00.604Z,19.2
2017-07-12T01:15:10.602Z,19.2
2017-07-12T01:15:20.598Z,19.2
2017-07-12T01:15:30.255Z,19.2
2017-07-12T01:15:40.249Z,19.2
2017-07-12T01:15:49.910Z,19.2
2017-07-12T01:16:00.574Z,19.2
2017-07-12T01:16:10.024Z,19.2
2017-07-12T01:16:20.570Z,19.2
2017-07-12T01:16:30.567Z,19.1
2017-07-12T01:16:39.884Z,19.1
2017-07-12T01:16:50.217Z,19.1
2017-07-12T01:17:00.552Z,19.1
2017-07-12T01:17:10.207Z,19.1
2017-07-12T01:17:20.205Z,19.1
2017-07-12T01:17:30.885Z,19.1
2017-07-12T01:17:40.527Z,19.1
2017-07-12T01:17:50.182Z,19.1
2017-07-12T01:18:00.186Z,19.1
2017-07-12T01:18:10.176Z,19.1
2017-07-12T01:18:20.509Z,19.1
2017-07-12T01:18:29.831Z,19.1
2017-07-12T01:18:40.499Z,19.1
2017-07-12T01:18:50.169Z,19
2017-07-12T01:18:59.817Z,19
2017-07-12T01:19:09.814Z,19.1
2017-07-12T01:19:20.144Z,19
2017-07-12T01:19:30.140Z,19
2017-07-12T01:19:40.468Z,19
2017-07-12T01:19:50.129Z,19
2017-07-12T01:20:00.127Z,19
2017-07-12T01:20:10.119Z,19
2017-07-12T01:20:20.453Z,19
2017-07-12T01:20:30.497Z,19
2017-07-12T01:20:40.101Z,19
2017-07-12T01:20:50.447Z,19
2017-07-12T01:21:00.429Z,19
2017-07-12T01:21:10.089Z,19
2017-07-12T01:21:20.085Z,19
2017-07-12T01:21:30.453Z,19
2017-07-12T01:21:39.733Z,19
2017-07-12T01:21:50.424Z,19
2017-07-12T01:22:00.063Z,19
2017-07-12T01:22:09.386Z,19
2017-07-12T01:22:19.723Z,19
2017-07-12T01:22:29.380Z,18.9
2017-07-12T01:22:39.714Z,18.9
2017-07-12T01:22:50.376Z,18.9
2017-07-12T01:22:59.703Z,18.9
2017-07-12T01:23:09.356Z,18.9
2017-07-12T01:23:19.685Z,18.9
2017-07-12T01:23:30.020Z,18.9
2017-07-12T01:23:39.806Z,18.9
2017-07-12T01:23:49.337Z,18.9
2017-07-12T01:24:00.004Z,18.9
2017-07-12T01:24:10.338Z,18.9
2017-07-12T01:24:19.993Z,18.9
2017-07-12T01:24:29.994Z,18.9
2017-07-12T01:24:40.323Z,18.9
2017-07-12T01:24:49.983Z,18.9
2017-07-12T01:24:59.636Z,18.9
2017-07-12T01:25:09.966Z,18.9
2017-07-12T01:25:19.965Z,18.9
2017-07-12T01:25:29.292Z,18.9
2017-07-12T01:25:40.292Z,18.9
2017-07-12T01:25:49.952Z,18.9
2017-07-12T01:25:59.609Z,18.9
2017-07-12T01:26:10.276Z,18.9
2017-07-12T01:26:19.266Z,18.9
2017-07-12T01:26:30.263Z,18.9
2017-07-12T01:26:40.262Z,18.9
2017-07-12T01:26:49.260Z,18.9
2017-07-12T01:27:00.256Z,18.9
2017-07-12T01:27:10.267Z,19
2017-07-12T01:27:19.908Z,19
2017-07-12T01:27:29.902Z,19
2017-07-12T01:27:40.588Z,19
2017-07-12T01:27:49.892Z,19
2017-07-12T01:28:00.005Z,19
2017-07-12T01:28:09.884Z,18.9
2017-07-12T01:28:19.874Z,18.9
2017-07-12T01:28:30.206Z,18.9
2017-07-12T01:28:39.866Z,18.9
2017-07-12T01:28:49.529Z,18.9
2017-07-12T01:28:59.986Z,18.9
2017-07-12T01:29:09.851Z,19
2017-07-12T01:29:19.853Z,18.9
2017-07-12T01:29:29.508Z,18.9
2017-07-12T01:29:39.841Z,18.9
2017-07-12T01:29:49.496Z,18.9
2017-07-12T01:29:59.832Z,18.8
2017-07-12T01:30:10.181Z,18.8
2017-07-12T01:30:19.820Z,18.8
2017-07-12T01:30:29.818Z,18.8
2017-07-12T01:30:39.812Z,18.8
2017-07-12T01:30:49.807Z,18.8
2017-07-12T01:30:59.463Z,18.8
2017-07-12T01:31:09.791Z,18.8
2017-07-12T01:31:20.124Z,18.8
2017-07-12T01:31:29.452Z,18.8
2017-07-12T01:31:39.773Z,18.8
2017-07-12T01:31:49.772Z,18.8
2017-07-12T01:31:59.440Z,18.8
2017-07-12T01:32:09.433Z,18.8
2017-07-12T01:32:19.426Z,18.8
2017-07-12T01:32:29.083Z,18.8
2017-07-12T01:32:39.747Z,18.8
2017-07-12T01:32:50.079Z,18.8
2017-07-12T01:32:59.737Z,18.8
2017-07-12T01:33:10.066Z,18.8
2017-07-12T01:33:19.728Z,18.8
2017-07-12T01:33:29.720Z,18.8
2017-07-12T01:33:39.384Z,18.7
2017-07-12T01:33:49.710Z,18.7
2017-07-12T01:33:59.707Z,18.7
2017-07-12T01:34:09.372Z,18.7
2017-07-12T01:34:19.697Z,18.7
2017-07-12T01:34:29.368Z,18.7
2017-07-12T01:34:40.024Z,18.7
2017-07-12T01:34:49.689Z,18.7
2017-07-12T01:34:59.683Z,18.7
2017-07-12T01:35:09.675Z,18.7
2017-07-12T01:35:19.004Z,18.7
2017-07-12T01:35:29.329Z,18.7
2017-07-12T01:35:40.003Z,18.7
2017-07-12T01:35:49.319Z,18.7
2017-07-12T01:35:59.656Z,18.7
2017-07-12T01:36:09.311Z,18.7
2017-07-12T01:36:19.644Z,18.7
2017-07-12T01:36:29.637Z,18.7
2017-07-12T01:36:39.629Z,18.7
2017-07-12T01:36:49.625Z,18.7
2017-07-12T01:36:59.964Z,18.7
2017-07-12T01:37:09.620Z,18.7
2017-07-12T01:37:19.277Z,18.7
2017-07-12T01:37:29.599Z,18.7
2017-07-12T01:37:39.605Z,18.7
2017-07-12T01:37:49.939Z,18.7
2017-07-12T01:37:59.591Z,18.7
2017-07-12T01:38:08.915Z,18.8
2017-07-12T01:38:19.919Z,18.8
2017-07-12T01:38:29.239Z,18.8
2017-07-12T01:38:39.899Z,18.7
2017-07-12T01:38:49.234Z,18.7
2017-07-12T01:38:59.563Z,18.7
2017-07-12T01:39:09.887Z,18.7
2017-07-12T01:39:19.552Z,18.7
2017-07-12T01:39:29.543Z,18.7
2017-07-12T01:39:39.880Z,18.7
2017-07-12T01:39:48.867Z,18.7
2017-07-12T01:39:59.867Z,18.7
2017-07-12T01:40:09.533Z,18.7
2017-07-12T01:40:19.189Z,18.7
2017-07-12T01:40:29.849Z,18.7
2017-07-12T01:40:39.856Z,18.7
2017-07-12T01:40:49.845Z,18.7
2017-07-12T01:40:59.496Z,18.7
2017-07-12T01:41:08.828Z,18.7
2017-07-12T01:41:19.493Z,18.7
2017-07-12T01:41:29.818Z,18.6
2017-07-12T01:41:38.814Z,18.6
2017-07-12T01:41:49.483Z,18.7
2017-07-12T01:41:59.137Z,18.7
2017-07-12T01:42:09.470Z,18.6
2017-07-12T01:42:19.796Z,18.6
2017-07-12T01:42:29.507Z,18.6
2017-07-12T01:42:39.785Z,18.6
2017-07-12T01:42:48.779Z,18.6
2017-07-12T01:42:59.108Z,18.6
2017-07-12T01:43:09.443Z,18.7
2017-07-12T01:43:19.438Z,18.6
2017-07-12T01:43:29.777Z,18.6
2017-07-12T01:43:39.427Z,18.6
2017-07-12T01:43:49.420Z,18.6
2017-07-12T01:43:59.416Z,18.6
2017-07-12T01:44:09.071Z,18.6
2017-07-12T01:44:19.071Z,18.6
2017-07-12T01:44:29.395Z,18.6
2017-07-12T01:44:39.059Z,18.6
2017-07-12T01:44:49.388Z,18.6
2017-07-12T01:44:59.721Z,18.6
2017-07-12T01:45:09.718Z,18.7
2017-07-12T01:45:19.038Z,18.7
2017-07-12T01:45:29.031Z,18.7
2017-07-12T01:45:39.363Z,18.7
2017-07-12T01:45:49.354Z,18.7
2017-07-12T01:45:59.356Z,18.7
2017-07-12T01:46:09.348Z,18.7
2017-07-12T01:46:19.725Z,18.7
2017-07-12T01:46:29.341Z,18.7
2017-07-12T01:46:39.336Z,18.7
2017-07-12T01:46:49.328Z,18.7
2017-07-12T01:46:58.988Z,18.7
2017-07-12T01:47:09.319Z,18.7
2017-07-12T01:47:19.316Z,18.7
2017-07-12T01:47:28.638Z,18.7
2017-07-12T01:47:39.645Z,18.7
2017-07-12T01:47:49.632Z,18.7
2017-07-12T01:47:59.306Z,18.7
2017-07-12T01:48:09.292Z,18.7
2017-07-12T01:48:18.949Z,18.7
2017-07-12T01:48:29.612Z,18.7
2017-07-12T01:48:39.270Z,18.7
2017-07-12T01:48:49.605Z,18.7
2017-07-12T01:48:59.279Z,18.7
2017-07-12T01:49:09.263Z,18.7
2017-07-12T01:49:19.590Z,18.7
2017-07-12T01:49:29.252Z,18.7
2017-07-12T01:49:39.298Z,18.7
2017-07-12T01:49:49.241Z,18.7
2017-07-12T01:49:59.232Z,18.7
2017-07-12T01:50:08.894Z,18.7
2017-07-12T01:50:19.229Z,18.6
2017-07-12T01:50:28.888Z,18.6
2017-07-12T01:50:38.881Z,18.7
2017-07-12T01:50:48.540Z,18.7
2017-07-12T01:50:59.204Z,18.7
2017-07-12T01:51:09.205Z,18.7
2017-07-12T01:51:18.862Z,18.6
2017-07-12T01:51:29.202Z,18.6
2017-07-12T01:51:39.190Z,18.6
2017-07-12T01:51:49.177Z,18.6
2017-07-12T01:51:59.173Z,18.6
2017-07-12T01:52:08.839Z,18.6
2017-07-12T01:52:19.168Z,18.6
2017-07-12T01:52:28.824Z,18.7
2017-07-12T01:52:38.819Z,18.7
2017-07-12T01:52:49.147Z,18.6
2017-07-12T01:52:59.479Z,18.7
2017-07-12T01:53:08.808Z,18.7
2017-07-12T01:53:19.476Z,18.7
2017-07-12T01:53:29.132Z,18.7
2017-07-12T01:53:38.792Z,18.7
2017-07-12T01:53:48.449Z,18.7
2017-07-12T01:53:59.457Z,18.7
2017-07-12T01:54:09.111Z,18.7
2017-07-12T01:54:19.108Z,18.7
2017-07-12T01:54:29.106Z,18.7
2017-07-12T01:54:39.426Z,18.7
2017-07-12T01:54:49.088Z,18.6
2017-07-12T01:54:59.420Z,18.6
2017-07-12T01:55:08.749Z,18.6
2017-07-12T01:55:18.745Z,18.6
2017-07-12T01:55:29.411Z,18.6
2017-07-12T01:55:39.071Z,18.6
2017-07-12T01:55:49.065Z,18.6
2017-07-12T01:55:59.060Z,18.6
2017-07-12T01:56:09.392Z,18.6
2017-07-12T01:56:19.046Z,18.6
2017-07-12T01:56:29.045Z,18.6
2017-07-12T01:56:38.700Z,18.6
2017-07-12T01:56:48.699Z,18.6
2017-07-12T01:56:59.027Z,18.6
2017-07-12T01:57:09.024Z,18.6
2017-07-12T01:57:19.404Z,18.6
2017-07-12T01:57:29.009Z,18.5
2017-07-12T01:57:39.010Z,18.5
2017-07-12T01:57:49.011Z,18.6
2017-07-12T01:57:58.997Z,18.6
2017-07-12T01:58:09.330Z,18.6
2017-07-12T01:58:18.316Z,18.6
2017-07-12T01:58:28.982Z,18.6
2017-07-12T01:58:38.979Z,18.6
2017-07-12T01:58:49.004Z,18.6
2017-07-12T01:58:59.303Z,18.6
2017-07-12T01:59:09.296Z,18.6
2017-07-12T01:59:18.963Z,18.6
2017-07-12T01:59:29.288Z,18.6
2017-07-12T01:59:39.314Z,18.6
2017-07-12T01:59:48.608Z,18.6
2017-07-12T01:59:58.938Z,18.6
2017-07-12T02:00:08.600Z,18.6
2017-07-12T02:00:19.323Z,18.6
2017-07-12T02:00:28.587Z,18.6
2017-07-12T02:00:39.254Z,18.6
2017-07-12T02:00:48.911Z,18.6
2017-07-12T02:00:59.246Z,18.6
2017-07-12T02:01:09.238Z,18.6
2017-07-12T02:01:18.899Z,18.6
2017-07-12T02:01:28.896Z,18.6
2017-07-12T02:01:38.553Z,18.6
2017-07-12T02:01:48.881Z,18.6
2017-07-12T02:01:58.881Z,18.6
2017-07-12T02:02:09.214Z,18.6
2017-07-12T02:02:18.866Z,18.6
2017-07-12T02:02:28.526Z,18.6
2017-07-12T02:02:38.187Z,18.6
2017-07-12T02:02:48.861Z,18.6
2017-07-12T02:02:59.183Z,18.6
2017-07-12T02:03:08.512Z,18.6
2017-07-12T02:03:19.172Z,18.6
2017-07-12T02:03:28.845Z,18.6
2017-07-12T02:03:39.165Z,18.6
2017-07-12T02:03:48.157Z,18.6
2017-07-12T02:03:58.487Z,18.6
2017-07-12T02:04:08.482Z,18.5
2017-07-12T02:04:18.811Z,18.6
2017-07-12T02:04:28.802Z,18.6
2017-07-12T02:04:38.466Z,18.5
2017-07-12T02:04:48.461Z,18.6
2017-07-12T02:04:59.129Z,18.6
2017-07-12T02:05:08.781Z,18.6
2017-07-12T02:05:18.780Z,18.6
2017-07-12T02:05:28.780Z,18.6
2017-07-12T02:05:38.437Z,18.6
2017-07-12T02:05:48.432Z,18.6
2017-07-12T02:05:59.097Z,18.6
2017-07-12T02:06:08.088Z,18.6
2017-07-12T02:06:19.084Z,18.6
2017-07-12T02:06:29.079Z,18.5
2017-07-12T02:06:39.082Z,18.5
2017-07-12T02:06:48.733Z,18.5
2017-07-12T02:06:58.730Z,18.5
2017-07-12T02:07:09.106Z,18.5
2017-07-12T02:07:18.718Z,18.5
2017-07-12T02:07:28.042Z,18.5
2017-07-12T02:07:38.712Z,18.6
2017-07-12T02:07:48.706Z,18.6
2017-07-12T02:07:58.365Z,18.6
2017-07-12T02:08:08.696Z,18.6
2017-07-12T02:08:19.025Z,18.6
2017-07-12T02:08:28.021Z,18.6
2017-07-12T02:08:39.013Z,18.6
2017-07-12T02:08:49.005Z,18.6
2017-07-12T02:08:58.671Z,18.6
2017-07-12T02:09:08.664Z,18.5
2017-07-12T02:09:18.657Z,18.5
2017-07-12T02:09:28.657Z,18.5
2017-07-12T02:09:38.651Z,18.5
2017-07-12T02:09:48.978Z,18.5
2017-07-12T02:09:58.979Z,18.5
2017-07-12T02:10:08.638Z,18.5
2017-07-12T02:10:18.298Z,18.5
2017-07-12T02:10:28.976Z,18.5
2017-07-12T02:10:38.621Z,18.5
2017-07-12T02:10:48.619Z,18.5
2017-07-12T02:10:58.945Z,18.5
2017-07-12T02:11:08.608Z,18.5
2017-07-12T02:11:18.933Z,18.5
2017-07-12T02:11:28.932Z,18.5
2017-07-12T02:11:38.926Z,18.5
2017-07-12T02:11:48.584Z,18.5
2017-07-12T02:11:58.582Z,18.5
2017-07-12T02:12:08.578Z,18.5
2017-07-12T02:12:18.910Z,18.5
2017-07-12T02:12:28.905Z,18.5
2017-07-12T02:12:38.222Z,18.5
2017-07-12T02:12:48.894Z,18.5
2017-07-12T02:12:58.885Z,18.5
2017-07-12T02:13:08.553Z,18.5
2017-07-12T02:13:17.873Z,18.5